sensor_id;sensor_type;location;lat;lon;timestamp;P1;durP1;ratioP1;P2;durP2;ratioP2
76714;SDS011;65644;44.990;20.288;2024-02-26T00:00:44;44.42;;;34.38;;
76714;SDS011;65644;44.990;20.288;2024-02-26T00:03:11;41.72;;;32.30;;
76714;SDS011;65644;44.990;20.288;2024-02-26T00:05:37;44.05;;;34.50;;
76714;SDS011;65644;44.990;20.288;2024-02-26T00:08:04;39.17;;;31.42;;
76714;SDS011;65644;44.990;20.288;2024-02-26T00:10:30;40.33;;;33.15;;
76714;SDS011;65644;44.990;20.288;2024-02-26T00:12:56;42.22;;;33.30;;
76714;SDS011;65644;44.990;20.288;2024-02-26T00:15:22;42.47;;;32.50;;
76714;SDS011;65644;44.990;20.288;2024-02-26T00:17:49;38.75;;;32.50;;
76714;SDS011;65644;44.990;20.288;2024-02-26T00:20:15;39.17;;;31.58;;
76714;SDS011;65644;44.990;20.288;2024-02-26T00:22:42;39.75;;;33.55;;
76714;SDS011;65644;44.990;20.288;2024-02-26T00:25:08;43.13;;;35.13;;
76714;SDS011;65644;44.990;20.288;2024-02-26T00:27:34;41.08;;;33.55;;
76714;SDS011;65644;44.990;20.288;2024-02-26T00:30:00;33.17;;;28.02;;
76714;SDS011;65644;44.990;20.288;2024-02-26T00:32:26;35.05;;;28.58;;
76714;SDS011;65644;44.990;20.288;2024-02-26T00:34:52;31.45;;;28.05;;
76714;SDS011;65644;44.990;20.288;2024-02-26T00:37:18;31.35;;;25.23;;
76714;SDS011;65644;44.990;20.288;2024-02-26T00:39:44;25.83;;;21.13;;
76714;SDS011;65644;44.990;20.288;2024-02-26T00:42:11;22.70;;;20.02;;
76714;SDS011;65644;44.990;20.288;2024-02-26T00:44:37;23.50;;;20.50;;
76714;SDS011;65644;44.990;20.288;2024-02-26T00:47:03;27.10;;;22.13;;
76714;SDS011;65644;44.990;20.288;2024-02-26T00:49:30;31.10;;;25.52;;
76714;SDS011;65644;44.990;20.288;2024-02-26T00:51:56;39.63;;;24.55;;
76714;SDS011;65644;44.990;20.288;2024-02-26T00:54:22;93.63;;;24.35;;
76714;SDS011;65644;44.990;20.288;2024-02-26T00:56:48;62.25;;;24.08;;
76714;SDS011;65644;44.990;20.288;2024-02-26T00:59:14;71.50;;;24.13;;
76714;SDS011;65644;44.990;20.288;2024-02-26T01:01:40;108.97;;;24.73;;
76714;SDS011;65644;44.990;20.288;2024-02-26T01:04:06;108.85;;;24.58;;
76714;SDS011;65644;44.990;20.288;2024-02-26T01:06:32;44.58;;;25.63;;
76714;SDS011;65644;44.990;20.288;2024-02-26T01:08:58;51.78;;;24.98;;
76714;SDS011;65644;44.990;20.288;2024-02-26T01:11:24;63.15;;;24.80;;
76714;SDS011;65644;44.990;20.288;2024-02-26T01:13:50;71.82;;;24.02;;
76714;SDS011;65644;44.990;20.288;2024-02-26T01:16:21;55.25;;;22.70;;
76714;SDS011;65644;44.990;20.288;2024-02-26T01:18:47;39.20;;;23.35;;
76714;SDS011;65644;44.990;20.288;2024-02-26T01:21:13;41.42;;;22.20;;
76714;SDS011;65644;44.990;20.288;2024-02-26T01:23:40;34.53;;;22.95;;
76714;SDS011;65644;44.990;20.288;2024-02-26T01:26:06;38.85;;;22.92;;
76714;SDS011;65644;44.990;20.288;2024-02-26T01:28:32;44.05;;;21.60;;
76714;SDS011;65644;44.990;20.288;2024-02-26T01:30:58;38.38;;;21.85;;
76714;SDS011;65644;44.990;20.288;2024-02-26T01:33:25;36.15;;;21.77;;
76714;SDS011;65644;44.990;20.288;2024-02-26T01:35:52;58.90;;;21.60;;
76714;SDS011;65644;44.990;20.288;2024-02-26T01:38:18;47.47;;;21.42;;
76714;SDS011;65644;44.990;20.288;2024-02-26T01:40:44;36.63;;;21.05;;
76714;SDS011;65644;44.990;20.288;2024-02-26T01:43:10;24.23;;;20.63;;
76714;SDS011;65644;44.990;20.288;2024-02-26T01:45:36;38.47;;;21.38;;
76714;SDS011;65644;44.990;20.288;2024-02-26T01:48:02;42.72;;;19.50;;
76714;SDS011;65644;44.990;20.288;2024-02-26T01:50:28;28.30;;;19.55;;
76714;SDS011;65644;44.990;20.288;2024-02-26T01:52:55;32.30;;;19.80;;
76714;SDS011;65644;44.990;20.288;2024-02-26T01:55:22;25.77;;;18.42;;
76714;SDS011;65644;44.990;20.288;2024-02-26T01:57:49;23.67;;;18.38;;
76714;SDS011;65644;44.990;20.288;2024-02-26T02:00:17;34.97;;;20.65;;
76714;SDS011;65644;44.990;20.288;2024-02-26T02:02:44;28.60;;;19.13;;
76714;SDS011;65644;44.990;20.288;2024-02-26T02:05:12;44.92;;;21.77;;
76714;SDS011;65644;44.990;20.288;2024-02-26T02:07:39;28.55;;;21.92;;
76714;SDS011;65644;44.990;20.288;2024-02-26T02:10:06;29.05;;;20.77;;
76714;SDS011;65644;44.990;20.288;2024-02-26T02:12:32;31.88;;;19.98;;
76714;SDS011;65644;44.990;20.288;2024-02-26T02:14:59;29.83;;;19.85;;
76714;SDS011;65644;44.990;20.288;2024-02-26T02:17:25;29.80;;;18.35;;
76714;SDS011;65644;44.990;20.288;2024-02-26T02:19:52;30.23;;;18.58;;
76714;SDS011;65644;44.990;20.288;2024-02-26T02:22:18;21.40;;;18.30;;
76714;SDS011;65644;44.990;20.288;2024-02-26T02:24:45;50.75;;;19.42;;
76714;SDS011;65644;44.990;20.288;2024-02-26T02:27:11;26.00;;;19.40;;
76714;SDS011;65644;44.990;20.288;2024-02-26T02:29:37;26.23;;;20.55;;
76714;SDS011;65644;44.990;20.288;2024-02-26T02:32:03;32.78;;;21.02;;
76714;SDS011;65644;44.990;20.288;2024-02-26T02:34:31;34.88;;;19.58;;
76714;SDS011;65644;44.990;20.288;2024-02-26T02:36:57;35.63;;;19.55;;
76714;SDS011;65644;44.990;20.288;2024-02-26T02:39:24;28.25;;;19.42;;
76714;SDS011;65644;44.990;20.288;2024-02-26T02:41:50;31.05;;;20.17;;
76714;SDS011;65644;44.990;20.288;2024-02-26T02:44:16;22.23;;;19.92;;
76714;SDS011;65644;44.990;20.288;2024-02-26T02:46:42;24.98;;;20.23;;
76714;SDS011;65644;44.990;20.288;2024-02-26T02:49:08;22.30;;;20.02;;
76714;SDS011;65644;44.990;20.288;2024-02-26T02:51:35;22.42;;;19.92;;
76714;SDS011;65644;44.990;20.288;2024-02-26T02:54:02;22.55;;;20.20;;
76714;SDS011;65644;44.990;20.288;2024-02-26T02:56:28;22.95;;;20.42;;
76714;SDS011;65644;44.990;20.288;2024-02-26T02:58:54;21.75;;;19.38;;
76714;SDS011;65644;44.990;20.288;2024-02-26T03:01:20;21.15;;;18.98;;
76714;SDS011;65644;44.990;20.288;2024-02-26T03:03:46;21.05;;;18.88;;
76714;SDS011;65644;44.990;20.288;2024-02-26T03:06:12;21.48;;;19.20;;
76714;SDS011;65644;44.990;20.288;2024-02-26T03:08:38;23.25;;;20.00;;
76714;SDS011;65644;44.990;20.288;2024-02-26T03:11:06;23.50;;;20.30;;
76714;SDS011;65644;44.990;20.288;2024-02-26T03:13:32;23.02;;;20.30;;
76714;SDS011;65644;44.990;20.288;2024-02-26T03:16:03;25.70;;;22.80;;
76714;SDS011;65644;44.990;20.288;2024-02-26T03:18:29;31.55;;;26.58;;
76714;SDS011;65644;44.990;20.288;2024-02-26T03:20:55;27.98;;;22.90;;
76714;SDS011;65644;44.990;20.288;2024-02-26T03:23:22;29.65;;;23.65;;
76714;SDS011;65644;44.990;20.288;2024-02-26T03:25:48;29.05;;;23.80;;
76714;SDS011;65644;44.990;20.288;2024-02-26T03:28:14;31.90;;;26.85;;
76714;SDS011;65644;44.990;20.288;2024-02-26T03:30:40;33.20;;;26.27;;
76714;SDS011;65644;44.990;20.288;2024-02-26T03:33:06;33.70;;;26.98;;
76714;SDS011;65644;44.990;20.288;2024-02-26T03:35:32;31.92;;;25.95;;
76714;SDS011;65644;44.990;20.288;2024-02-26T03:37:58;29.42;;;25.13;;
76714;SDS011;65644;44.990;20.288;2024-02-26T03:40:24;27.35;;;24.15;;
76714;SDS011;65644;44.990;20.288;2024-02-26T03:42:51;26.08;;;23.30;;
76714;SDS011;65644;44.990;20.288;2024-02-26T03:45:19;27.17;;;24.15;;
76714;SDS011;65644;44.990;20.288;2024-02-26T03:47:45;26.88;;;23.98;;
76714;SDS011;65644;44.990;20.288;2024-02-26T03:50:11;26.55;;;23.65;;
76714;SDS011;65644;44.990;20.288;2024-02-26T03:52:37;26.55;;;23.30;;
76714;SDS011;65644;44.990;20.288;2024-02-26T03:55:03;26.23;;;23.08;;
76714;SDS011;65644;44.990;20.288;2024-02-26T03:57:29;29.35;;;23.80;;
76714;SDS011;65644;44.990;20.288;2024-02-26T03:59:56;26.40;;;23.23;;
76714;SDS011;65644;44.990;20.288;2024-02-26T04:02:22;26.60;;;23.30;;
76714;SDS011;65644;44.990;20.288;2024-02-26T04:04:48;28.00;;;25.00;;
76714;SDS011;65644;44.990;20.288;2024-02-26T04:07:14;27.05;;;24.15;;
76714;SDS011;65644;44.990;20.288;2024-02-26T04:09:41;28.02;;;24.08;;
76714;SDS011;65644;44.990;20.288;2024-02-26T04:12:08;28.13;;;24.17;;
76714;SDS011;65644;44.990;20.288;2024-02-26T04:14:35;28.02;;;25.13;;
76714;SDS011;65644;44.990;20.288;2024-02-26T04:17:01;27.48;;;24.58;;
76714;SDS011;65644;44.990;20.288;2024-02-26T04:19:27;29.98;;;26.63;;
76714;SDS011;65644;44.990;20.288;2024-02-26T04:21:54;28.45;;;25.50;;
76714;SDS011;65644;44.990;20.288;2024-02-26T04:24:20;29.13;;;23.85;;
76714;SDS011;65644;44.990;20.288;2024-02-26T04:26:46;30.80;;;23.23;;
76714;SDS011;65644;44.990;20.288;2024-02-26T04:29:12;23.88;;;21.40;;
76714;SDS011;65644;44.990;20.288;2024-02-26T04:31:38;23.17;;;20.65;;
76714;SDS011;65644;44.990;20.288;2024-02-26T04:34:05;24.58;;;21.98;;
76714;SDS011;65644;44.990;20.288;2024-02-26T04:36:31;24.80;;;21.63;;
76714;SDS011;65644;44.990;20.288;2024-02-26T04:38:57;23.52;;;21.08;;
76714;SDS011;65644;44.990;20.288;2024-02-26T04:41:23;24.30;;;21.88;;
76714;SDS011;65644;44.990;20.288;2024-02-26T04:43:49;25.75;;;21.92;;
76714;SDS011;65644;44.990;20.288;2024-02-26T04:46:15;27.83;;;23.55;;
76714;SDS011;65644;44.990;20.288;2024-02-26T04:48:41;29.17;;;24.20;;
76714;SDS011;65644;44.990;20.288;2024-02-26T04:51:08;25.08;;;22.42;;
76714;SDS011;65644;44.990;20.288;2024-02-26T04:53:34;28.02;;;25.00;;
76714;SDS011;65644;44.990;20.288;2024-02-26T04:56:00;28.30;;;23.90;;
76714;SDS011;65644;44.990;20.288;2024-02-26T04:58:26;28.13;;;24.23;;
76714;SDS011;65644;44.990;20.288;2024-02-26T05:00:52;28.55;;;25.10;;
76714;SDS011;65644;44.990;20.288;2024-02-26T05:03:18;28.08;;;24.98;;
76714;SDS011;65644;44.990;20.288;2024-02-26T05:05:44;33.30;;;26.30;;
76714;SDS011;65644;44.990;20.288;2024-02-26T05:08:10;28.77;;;24.45;;
76714;SDS011;65644;44.990;20.288;2024-02-26T05:10:37;27.50;;;24.02;;
76714;SDS011;65644;44.990;20.288;2024-02-26T05:13:06;28.08;;;25.08;;
76714;SDS011;65644;44.990;20.288;2024-02-26T05:15:32;26.52;;;23.73;;
76714;SDS011;65644;44.990;20.288;2024-02-26T05:17:58;26.08;;;23.38;;
76714;SDS011;65644;44.990;20.288;2024-02-26T05:20:24;26.95;;;24.05;;
76714;SDS011;65644;44.990;20.288;2024-02-26T05:22:50;26.95;;;24.05;;
76714;SDS011;65644;44.990;20.288;2024-02-26T05:25:17;25.73;;;23.05;;
76714;SDS011;65644;44.990;20.288;2024-02-26T05:27:43;27.48;;;23.40;;
76714;SDS011;65644;44.990;20.288;2024-02-26T05:30:10;25.48;;;22.52;;
76714;SDS011;65644;44.990;20.288;2024-02-26T05:32:36;25.63;;;21.48;;
76714;SDS011;65644;44.990;20.288;2024-02-26T05:35:02;25.42;;;20.83;;
76714;SDS011;65644;44.990;20.288;2024-02-26T05:37:29;25.25;;;20.65;;
76714;SDS011;65644;44.990;20.288;2024-02-26T05:39:55;22.38;;;19.27;;
76714;SDS011;65644;44.990;20.288;2024-02-26T05:42:21;23.60;;;19.02;;
76714;SDS011;65644;44.990;20.288;2024-02-26T05:44:47;23.33;;;18.42;;
76714;SDS011;65644;44.990;20.288;2024-02-26T05:47:13;20.60;;;17.55;;
76714;SDS011;65644;44.990;20.288;2024-02-26T05:49:39;21.13;;;17.52;;
76714;SDS011;65644;44.990;20.288;2024-02-26T05:52:05;21.52;;;17.15;;
76714;SDS011;65644;44.990;20.288;2024-02-26T05:54:32;21.73;;;17.30;;
76714;SDS011;65644;44.990;20.288;2024-02-26T05:56:58;20.13;;;16.83;;
76714;SDS011;65644;44.990;20.288;2024-02-26T05:59:24;21.90;;;17.52;;
76714;SDS011;65644;44.990;20.288;2024-02-26T06:01:50;22.50;;;17.48;;
76714;SDS011;65644;44.990;20.288;2024-02-26T06:04:16;20.23;;;16.08;;
76714;SDS011;65644;44.990;20.288;2024-02-26T06:06:43;21.83;;;16.08;;
76714;SDS011;65644;44.990;20.288;2024-02-26T06:09:10;20.00;;;17.35;;
76714;SDS011;65644;44.990;20.288;2024-02-26T06:11:36;20.27;;;16.90;;
76714;SDS011;65644;44.990;20.288;2024-02-26T06:14:03;22.02;;;17.08;;
76714;SDS011;65644;44.990;20.288;2024-02-26T06:16:29;21.60;;;17.35;;
76714;SDS011;65644;44.990;20.288;2024-02-26T06:18:55;22.95;;;17.58;;
76714;SDS011;65644;44.990;20.288;2024-02-26T06:21:21;22.60;;;17.27;;
76714;SDS011;65644;44.990;20.288;2024-02-26T06:23:47;48.20;;;28.10;;
76714;SDS011;65644;44.990;20.288;2024-02-26T06:26:15;42.75;;;26.55;;
76714;SDS011;65644;44.990;20.288;2024-02-26T06:28:41;66.63;;;33.33;;
76714;SDS011;65644;44.990;20.288;2024-02-26T06:31:07;55.20;;;27.55;;
76714;SDS011;65644;44.990;20.288;2024-02-26T06:33:34;59.78;;;28.70;;
76714;SDS011;65644;44.990;20.288;2024-02-26T06:36:00;80.60;;;36.88;;
76714;SDS011;65644;44.990;20.288;2024-02-26T06:38:26;95.07;;;39.40;;
76714;SDS011;65644;44.990;20.288;2024-02-26T06:40:52;40.30;;;22.83;;
76714;SDS011;65644;44.990;20.288;2024-02-26T06:43:18;55.78;;;25.20;;
76714;SDS011;65644;44.990;20.288;2024-02-26T06:45:44;34.92;;;20.65;;
76714;SDS011;65644;44.990;20.288;2024-02-26T06:48:10;36.40;;;22.00;;
76714;SDS011;65644;44.990;20.288;2024-02-26T06:50:36;37.53;;;22.15;;
76714;SDS011;65644;44.990;20.288;2024-02-26T06:53:02;47.13;;;24.73;;
76714;SDS011;65644;44.990;20.288;2024-02-26T06:55:29;82.47;;;33.72;;
76714;SDS011;65644;44.990;20.288;2024-02-26T06:57:55;61.30;;;27.77;;
76714;SDS011;65644;44.990;20.288;2024-02-26T07:00:21;62.28;;;28.90;;
76714;SDS011;65644;44.990;20.288;2024-02-26T07:02:47;50.55;;;24.23;;
76714;SDS011;65644;44.990;20.288;2024-02-26T07:05:13;43.88;;;23.48;;
76714;SDS011;65644;44.990;20.288;2024-02-26T07:07:39;31.83;;;20.95;;
76714;SDS011;65644;44.990;20.288;2024-02-26T07:10:05;33.40;;;19.55;;
76714;SDS011;65644;44.990;20.288;2024-02-26T07:12:32;31.27;;;19.67;;
76714;SDS011;65644;44.990;20.288;2024-02-26T07:14:58;41.28;;;23.38;;
76714;SDS011;65644;44.990;20.288;2024-02-26T07:17:24;24.08;;;18.65;;
76714;SDS011;65644;44.990;20.288;2024-02-26T07:19:50;29.30;;;19.88;;
76714;SDS011;65644;44.990;20.288;2024-02-26T07:22:16;22.13;;;17.13;;
76714;SDS011;65644;44.990;20.288;2024-02-26T07:24:42;22.67;;;16.27;;
76714;SDS011;65644;44.990;20.288;2024-02-26T07:27:08;29.50;;;21.83;;
76714;SDS011;65644;44.990;20.288;2024-02-26T07:29:35;40.55;;;27.27;;
76714;SDS011;65644;44.990;20.288;2024-02-26T07:32:01;26.80;;;20.92;;
76714;SDS011;65644;44.990;20.288;2024-02-26T07:34:27;26.65;;;19.08;;
76714;SDS011;65644;44.990;20.288;2024-02-26T07:36:54;23.27;;;18.27;;
76714;SDS011;65644;44.990;20.288;2024-02-26T07:39:21;23.15;;;16.15;;
76714;SDS011;65644;44.990;20.288;2024-02-26T07:41:47;19.60;;;15.55;;
76714;SDS011;65644;44.990;20.288;2024-02-26T07:44:16;23.15;;;17.58;;
76714;SDS011;65644;44.990;20.288;2024-02-26T07:46:42;17.92;;;15.80;;
76714;SDS011;65644;44.990;20.288;2024-02-26T07:49:08;20.05;;;15.57;;
76714;SDS011;65644;44.990;20.288;2024-02-26T07:51:34;20.38;;;16.92;;
76714;SDS011;65644;44.990;20.288;2024-02-26T07:54:00;19.73;;;15.90;;
76714;SDS011;65644;44.990;20.288;2024-02-26T07:56:28;21.80;;;16.45;;
76714;SDS011;65644;44.990;20.288;2024-02-26T07:58:54;23.25;;;17.73;;
76714;SDS011;65644;44.990;20.288;2024-02-26T08:01:20;21.35;;;17.08;;
76714;SDS011;65644;44.990;20.288;2024-02-26T08:03:46;21.05;;;17.75;;
76714;SDS011;65644;44.990;20.288;2024-02-26T08:06:12;20.58;;;15.90;;
76714;SDS011;65644;44.990;20.288;2024-02-26T08:08:38;17.88;;;15.27;;
76714;SDS011;65644;44.990;20.288;2024-02-26T08:11:04;18.52;;;14.95;;
76714;SDS011;65644;44.990;20.288;2024-02-26T08:13:30;19.20;;;14.88;;
76714;SDS011;65644;44.990;20.288;2024-02-26T08:15:56;18.50;;;14.80;;
76714;SDS011;65644;44.990;20.288;2024-02-26T08:18:23;19.33;;;14.80;;
76714;SDS011;65644;44.990;20.288;2024-02-26T08:20:50;18.05;;;14.18;;
76714;SDS011;65644;44.990;20.288;2024-02-26T08:23:16;16.50;;;14.40;;
76714;SDS011;65644;44.990;20.288;2024-02-26T08:25:42;20.60;;;15.25;;
76714;SDS011;65644;44.990;20.288;2024-02-26T08:28:08;20.38;;;14.63;;
76714;SDS011;65644;44.990;20.288;2024-02-26T08:30:36;19.75;;;13.98;;
76714;SDS011;65644;44.990;20.288;2024-02-26T08:33:02;21.67;;;15.65;;
76714;SDS011;65644;44.990;20.288;2024-02-26T08:35:28;15.90;;;12.32;;
76714;SDS011;65644;44.990;20.288;2024-02-26T08:37:54;16.45;;;12.65;;
76714;SDS011;65644;44.990;20.288;2024-02-26T08:40:20;16.88;;;13.57;;
76714;SDS011;65644;44.990;20.288;2024-02-26T08:42:46;17.98;;;12.50;;
76714;SDS011;65644;44.990;20.288;2024-02-26T08:45:12;14.02;;;11.90;;
76714;SDS011;65644;44.990;20.288;2024-02-26T08:47:38;17.15;;;13.10;;
76714;SDS011;65644;44.990;20.288;2024-02-26T08:50:05;13.32;;;10.10;;
76714;SDS011;65644;44.990;20.288;2024-02-26T08:52:31;13.60;;;9.82;;
76714;SDS011;65644;44.990;20.288;2024-02-26T08:54:58;14.88;;;10.00;;
76714;SDS011;65644;44.990;20.288;2024-02-26T08:57:24;11.40;;;9.95;;
76714;SDS011;65644;44.990;20.288;2024-02-26T08:59:53;12.95;;;9.82;;
76714;SDS011;65644;44.990;20.288;2024-02-26T09:02:19;11.45;;;8.35;;
76714;SDS011;65644;44.990;20.288;2024-02-26T09:04:45;12.13;;;8.82;;
76714;SDS011;65644;44.990;20.288;2024-02-26T09:07:11;13.05;;;7.95;;
76714;SDS011;65644;44.990;20.288;2024-02-26T09:09:37;14.45;;;8.80;;
76714;SDS011;65644;44.990;20.288;2024-02-26T09:12:03;8.35;;;7.32;;
76714;SDS011;65644;44.990;20.288;2024-02-26T09:14:30;11.73;;;6.68;;
76714;SDS011;65644;44.990;20.288;2024-02-26T09:16:56;8.32;;;7.18;;
76714;SDS011;65644;44.990;20.288;2024-02-26T09:19:22;6.82;;;5.95;;
76714;SDS011;65644;44.990;20.288;2024-02-26T09:21:50;7.82;;;5.43;;
76714;SDS011;65644;44.990;20.288;2024-02-26T09:24:16;9.18;;;6.47;;
76714;SDS011;65644;44.990;20.288;2024-02-26T09:26:42;8.90;;;6.22;;
76714;SDS011;65644;44.990;20.288;2024-02-26T09:29:08;10.35;;;6.32;;
76714;SDS011;65644;44.990;20.288;2024-02-26T09:31:34;7.03;;;6.28;;
76714;SDS011;65644;44.990;20.288;2024-02-26T09:34:01;9.32;;;5.88;;
76714;SDS011;65644;44.990;20.288;2024-02-26T09:36:27;8.48;;;5.75;;
76714;SDS011;65644;44.990;20.288;2024-02-26T09:38:53;10.80;;;6.15;;
76714;SDS011;65644;44.990;20.288;2024-02-26T09:41:19;8.77;;;6.07;;
76714;SDS011;65644;44.990;20.288;2024-02-26T09:43:45;8.25;;;5.65;;
76714;SDS011;65644;44.990;20.288;2024-02-26T09:46:13;7.13;;;5.40;;
76714;SDS011;65644;44.990;20.288;2024-02-26T09:48:40;7.40;;;5.47;;
76714;SDS011;65644;44.990;20.288;2024-02-26T09:51:08;6.22;;;5.25;;
76714;SDS011;65644;44.990;20.288;2024-02-26T09:53:36;8.40;;;5.22;;
76714;SDS011;65644;44.990;20.288;2024-02-26T09:56:07;5.50;;;4.97;;
76714;SDS011;65644;44.990;20.288;2024-02-26T09:58:34;5.82;;;4.80;;
76714;SDS011;65644;44.990;20.288;2024-02-26T10:01:02;8.18;;;4.88;;
76714;SDS011;65644;44.990;20.288;2024-02-26T10:03:31;9.20;;;5.20;;
76714;SDS011;65644;44.990;20.288;2024-02-26T10:05:58;5.70;;;4.13;;
76714;SDS011;65644;44.990;20.288;2024-02-26T10:08:24;6.90;;;5.00;;
76714;SDS011;65644;44.990;20.288;2024-02-26T10:10:50;6.15;;;4.50;;
76714;SDS011;65644;44.990;20.288;2024-02-26T10:13:17;5.10;;;4.57;;
76714;SDS011;65644;44.990;20.288;2024-02-26T10:15:44;10.13;;;5.13;;
76714;SDS011;65644;44.990;20.288;2024-02-26T10:18:11;6.95;;;5.25;;
76714;SDS011;65644;44.990;20.288;2024-02-26T10:20:37;8.88;;;5.18;;
76714;SDS011;65644;44.990;20.288;2024-02-26T10:23:03;6.20;;;4.75;;
76714;SDS011;65644;44.990;20.288;2024-02-26T10:25:30;8.38;;;4.97;;
76714;SDS011;65644;44.990;20.288;2024-02-26T10:27:59;7.88;;;5.10;;
76714;SDS011;65644;44.990;20.288;2024-02-26T10:30:29;7.20;;;5.13;;
76714;SDS011;65644;44.990;20.288;2024-02-26T10:32:55;5.85;;;4.75;;
76714;SDS011;65644;44.990;20.288;2024-02-26T10:35:22;6.70;;;4.80;;
76714;SDS011;65644;44.990;20.288;2024-02-26T10:37:49;7.40;;;4.55;;
76714;SDS011;65644;44.990;20.288;2024-02-26T10:40:16;5.90;;;4.05;;
76714;SDS011;65644;44.990;20.288;2024-02-26T10:42:42;6.30;;;4.53;;
76714;SDS011;65644;44.990;20.288;2024-02-26T10:45:10;6.75;;;5.07;;
76714;SDS011;65644;44.990;20.288;2024-02-26T10:47:36;7.78;;;4.65;;
76714;SDS011;65644;44.990;20.288;2024-02-26T10:50:03;7.50;;;4.63;;
76714;SDS011;65644;44.990;20.288;2024-02-26T10:52:31;8.43;;;4.75;;
76714;SDS011;65644;44.990;20.288;2024-02-26T10:55:00;8.65;;;5.38;;
76714;SDS011;65644;44.990;20.288;2024-02-26T10:57:28;6.72;;;4.72;;
76714;SDS011;65644;44.990;20.288;2024-02-26T10:59:57;5.45;;;4.60;;
76714;SDS011;65644;44.990;20.288;2024-02-26T11:02:26;6.60;;;4.90;;
76714;SDS011;65644;44.990;20.288;2024-02-26T11:04:52;6.53;;;4.40;;
76714;SDS011;65644;44.990;20.288;2024-02-26T11:07:19;8.07;;;4.88;;
76714;SDS011;65644;44.990;20.288;2024-02-26T11:09:46;7.15;;;4.70;;
76714;SDS011;65644;44.990;20.288;2024-02-26T11:12:17;9.30;;;6.22;;
76714;SDS011;65644;44.990;20.288;2024-02-26T11:14:44;18.48;;;10.07;;
76714;SDS011;65644;44.990;20.288;2024-02-26T11:17:11;19.25;;;8.85;;
76714;SDS011;65644;44.990;20.288;2024-02-26T11:19:38;13.18;;;6.90;;
76714;SDS011;65644;44.990;20.288;2024-02-26T11:22:05;13.80;;;6.22;;
76714;SDS011;65644;44.990;20.288;2024-02-26T11:24:31;11.07;;;5.70;;
76714;SDS011;65644;44.990;20.288;2024-02-26T11:26:58;46.20;;;15.52;;
76714;SDS011;65644;44.990;20.288;2024-02-26T11:29:34;37.13;;;14.93;;
76714;SDS011;65644;44.990;20.288;2024-02-26T11:32:01;26.80;;;10.18;;
76714;SDS011;65644;44.990;20.288;2024-02-26T11:34:27;8.15;;;5.25;;
76714;SDS011;65644;44.990;20.288;2024-02-26T11:36:54;6.93;;;5.28;;
76714;SDS011;65644;44.990;20.288;2024-02-26T11:39:20;8.32;;;4.97;;
76714;SDS011;65644;44.990;20.288;2024-02-26T11:41:46;21.80;;;9.02;;
76714;SDS011;65644;44.990;20.288;2024-02-26T11:44:12;32.13;;;11.77;;
76714;SDS011;65644;44.990;20.288;2024-02-26T11:46:42;38.83;;;14.55;;
76714;SDS011;65644;44.990;20.288;2024-02-26T11:51:51;10.35;;;5.05;;
76714;SDS011;65644;44.990;20.288;2024-02-26T11:57:19;9.18;;;5.10;;
76714;SDS011;65644;44.990;20.288;2024-02-26T11:59:45;13.32;;;6.47;;
76714;SDS011;65644;44.990;20.288;2024-02-26T12:02:12;8.68;;;4.90;;
76714;SDS011;65644;44.990;20.288;2024-02-26T12:04:38;8.63;;;5.32;;
76714;SDS011;65644;44.990;20.288;2024-02-26T12:07:04;10.43;;;5.50;;
76714;SDS011;65644;44.990;20.288;2024-02-26T12:09:40;18.25;;;8.75;;
76714;SDS011;65644;44.990;20.288;2024-02-26T12:12:07;20.60;;;9.52;;
76714;SDS011;65644;44.990;20.288;2024-02-26T12:14:55;7.45;;;5.07;;
76714;SDS011;65644;44.990;20.288;2024-02-26T12:17:20;7.97;;;4.93;;
76714;SDS011;65644;44.990;20.288;2024-02-26T12:19:49;8.77;;;6.13;;
76714;SDS011;65644;44.990;20.288;2024-02-26T12:22:16;15.30;;;7.05;;
76714;SDS011;65644;44.990;20.288;2024-02-26T12:24:43;7.15;;;5.03;;
76714;SDS011;65644;44.990;20.288;2024-02-26T12:27:09;14.15;;;5.60;;
76714;SDS011;65644;44.990;20.288;2024-02-26T12:29:35;7.82;;;4.78;;
76714;SDS011;65644;44.990;20.288;2024-02-26T12:32:01;13.90;;;6.60;;
76714;SDS011;65644;44.990;20.288;2024-02-26T12:34:28;9.23;;;5.05;;
76714;SDS011;65644;44.990;20.288;2024-02-26T12:36:55;18.75;;;8.93;;
76714;SDS011;65644;44.990;20.288;2024-02-26T12:39:21;19.50;;;6.82;;
76714;SDS011;65644;44.990;20.288;2024-02-26T12:41:47;6.47;;;4.80;;
76714;SDS011;65644;44.990;20.288;2024-02-26T12:44:16;6.95;;;4.85;;
76714;SDS011;65644;44.990;20.288;2024-02-26T12:46:42;5.72;;;3.78;;
76714;SDS011;65644;44.990;20.288;2024-02-26T12:49:08;7.22;;;4.38;;
76714;SDS011;65644;44.990;20.288;2024-02-26T12:51:40;7.22;;;3.67;;
76714;SDS011;65644;44.990;20.288;2024-02-26T12:54:06;6.30;;;3.70;;
76714;SDS011;65644;44.990;20.288;2024-02-26T12:56:34;6.55;;;4.07;;
76714;SDS011;65644;44.990;20.288;2024-02-26T12:59:00;8.77;;;5.00;;
76714;SDS011;65644;44.990;20.288;2024-02-26T13:01:26;6.93;;;4.10;;
76714;SDS011;65644;44.990;20.288;2024-02-26T13:03:53;13.38;;;7.45;;
76714;SDS011;65644;44.990;20.288;2024-02-26T13:06:20;16.15;;;8.43;;
76714;SDS011;65644;44.990;20.288;2024-02-26T13:08:47;6.53;;;4.45;;
76714;SDS011;65644;44.990;20.288;2024-02-26T13:11:13;6.30;;;3.80;;
76714;SDS011;65644;44.990;20.288;2024-02-26T13:13:39;14.35;;;6.95;;
76714;SDS011;65644;44.990;20.288;2024-02-26T13:16:07;12.23;;;5.50;;
76714;SDS011;65644;44.990;20.288;2024-02-26T13:18:33;8.07;;;5.03;;
76714;SDS011;65644;44.990;20.288;2024-02-26T13:21:11;8.32;;;5.03;;
76714;SDS011;65644;44.990;20.288;2024-02-26T13:23:38;25.55;;;10.63;;
76714;SDS011;65644;44.990;20.288;2024-02-26T13:26:04;8.00;;;4.63;;
76714;SDS011;65644;44.990;20.288;2024-02-26T13:28:30;19.55;;;9.10;;
76714;SDS011;65644;44.990;20.288;2024-02-26T13:30:57;19.85;;;9.80;;
76714;SDS011;65644;44.990;20.288;2024-02-26T13:33:25;7.53;;;4.40;;
76714;SDS011;65644;44.990;20.288;2024-02-26T13:35:52;5.90;;;3.33;;
76714;SDS011;65644;44.990;20.288;2024-02-26T13:38:18;5.78;;;3.60;;
76714;SDS011;65644;44.990;20.288;2024-02-26T13:40:44;5.13;;;3.17;;
76714;SDS011;65644;44.990;20.288;2024-02-26T13:43:11;28.25;;;11.60;;
76714;SDS011;65644;44.990;20.288;2024-02-26T13:45:37;9.95;;;5.30;;
76714;SDS011;65644;44.990;20.288;2024-02-26T13:48:04;6.13;;;3.60;;
76714;SDS011;65644;44.990;20.288;2024-02-26T13:50:31;7.70;;;3.63;;
76714;SDS011;65644;44.990;20.288;2024-02-26T13:52:57;6.25;;;3.15;;
76714;SDS011;65644;44.990;20.288;2024-02-26T13:55:23;7.10;;;2.90;;
76714;SDS011;65644;44.990;20.288;2024-02-26T13:57:51;48.22;;;22.00;;
76714;SDS011;65644;44.990;20.288;2024-02-26T14:00:19;46.38;;;20.48;;
76714;SDS011;65644;44.990;20.288;2024-02-26T14:02:45;6.20;;;4.32;;
76714;SDS011;65644;44.990;20.288;2024-02-26T14:05:11;5.10;;;3.40;;
76714;SDS011;65644;44.990;20.288;2024-02-26T14:07:38;5.50;;;3.15;;
76714;SDS011;65644;44.990;20.288;2024-02-26T14:10:05;8.35;;;6.65;;
76714;SDS011;65644;44.990;20.288;2024-02-26T14:12:31;4.53;;;3.67;;
76714;SDS011;65644;44.990;20.288;2024-02-26T14:14:57;3.80;;;3.40;;
76714;SDS011;65644;44.990;20.288;2024-02-26T14:17:25;4.60;;;3.28;;